Time,TemperatureF,DewpointF,PressureIn,WindDirection,WindDirectionDegrees,WindSpeedMPH,WindSpeedGustMPH,Humidity,HourlyPrecipIn,Conditions,Clouds,dailyrainin,SoftwareType,DateUTC
2013-08-25 00:05:00,51.4,49.7,30.33,SSE,157,0.0,-999.0,94,-99.99,,,0.00,Acu-Link.com,2013-08-25 04:05:00,
2013-08-25 00:20:00,50.9,49.5,30.33,NE,45,0.0,-999.0,95,-99.99,,,0.00,Acu-Link.com,2013-08-25 04:20:00,
2013-08-25 00:36:00,50.7,49.6,30.34,WNW,292,0.0,-999.0,96,-99.99,,,0.00,Acu-Link.com,2013-08-25 04:36:00,
2013-08-25 00:51:00,50.4,49.3,30.34,WNW,292,0.0,-999.0,96,-99.99,,,0.00,Acu-Link.com,2013-08-25 04:51:00,
2013-08-25 01:06:00,50.0,48.6,30.34,West,270,0.0,-999.0,95,-99.99,,,0.00,Acu-Link.com,2013-08-25 05:06:00,
2013-08-25 01:21:00,49.8,48.7,30.34,NNE,22,0.0,-999.0,96,-99.99,,,0.00,Acu-Link.com,2013-08-25 05:21:00,
2013-08-25 01:36:00,49.5,48.4,30.33,NE,45,0.0,-999.0,96,-99.99,,,0.00,Acu-Link.com,2013-08-25 05:36:00,
2013-08-25 01:52:00,49.1,48.0,30.33,NNE,22,0.0,-999.0,96,-99.99,,,0.00,Acu-Link.com,2013-08-25 05:52:00,
2013-08-25 02:07:00,48.7,47.6,30.33,NNE,22,0.0,-999.0,96,-99.99,,,0.00,Acu-Link.com,2013-08-25 06:07:00,
2013-08-25 02:22:00,48.6,47.8,30.33,SE,135,0.0,-999.0,97,-99.99,,,0.00,Acu-Link.com,2013-08-25 06:22:00,
2013-08-25 02:38:00,48.0,47.2,30.33,NNW,337,0.0,-999.0,97,-99.99,,,0.00,Acu-Link.com,2013-08-25 06:38:00,
2013-08-25 02:53:00,47.8,47.0,30.33,ESE,112,0.0,-999.0,97,-99.99,,,0.00,Acu-Link.com,2013-08-25 06:53:00,
2013-08-25 03:08:00,47.7,46.9,30.33,NE,45,0.0,-999.0,97,-99.99,,,0.00,Acu-Link.com,2013-08-25 07:08:00,
2013-08-25 03:24:00,47.5,46.7,30.33,ESE,112,0.0,-999.0,97,-99.99,,,0.00,Acu-Link.com,2013-08-25 07:24:00,
2013-08-25 03:39:00,47.3,46.5,30.34,NNE,22,0.0,-999.0,97,-99.99,,,0.00,Acu-Link.com,2013-08-25 07:39:00,
2013-08-25 03:54:00,46.8,45.7,30.34,SSW,202,0.0,-999.0,96,-99.99,,,0.00,Acu-Link.com,2013-08-25 07:54:00,
2013-08-25 04:10:00,46.8,46.0,30.34,North,0,0.0,-999.0,97,-99.99,,,0.00,Acu-Link.com,2013-08-25 08:10:00,
2013-08-25 04:25:00,46.8,46.3,30.34,NNW,337,0.0,-999.0,98,-99.99,,,0.00,Acu-Link.com,2013-08-25 08:25:00,
2013-08-25 04:41:00,46.4,45.6,30.35,NE,45,0.0,-999.0,97,-99.99,,,0.00,Acu-Link.com,2013-08-25 08:41:00,
2013-08-25 04:56:00,46.2,45.4,30.35,SW,225,0.0,-999.0,97,-99.99,,,0.00,Acu-Link.com,2013-08-25 08:56:00,
2013-08-25 05:11:00,46.2,45.4,30.35,ESE,112,0.0,-999.0,97,-99.99,,,0.00,Acu-Link.com,2013-08-25 09:11:00,
2013-08-25 05:26:00,46.2,45.4,30.36,NNE,22,0.0,-999.0,97,-99.99,,,0.00,Acu-Link.com,2013-08-25 09:26:00,
2013-08-25 05:41:00,45.5,44.7,30.36,NNE,22,0.0,-999.0,97,-99.99,,,0.00,Acu-Link.com,2013-08-25 09:41:00,
2013-08-25 05:57:00,45.5,44.4,30.37,East,90,0.0,-999.0,96,-99.99,,,0.00,Acu-Link.com,2013-08-25 09:57:00,
2013-08-25 06:12:00,45.3,44.5,30.38,NNE,22,0.0,-999.0,97,-99.99,,,0.00,Acu-Link.com,2013-08-25 10:12:00,
2013-08-25 06:27:00,45.5,45.0,30.37,ESE,112,0.0,-999.0,98,-99.99,,,0.00,Acu-Link.com,2013-08-25 10:27:00,
2013-08-25 06:42:00,46.2,45.7,30.38,ESE,112,0.0,-999.0,98,-99.99,,,0.00,Acu-Link.com,2013-08-25 10:42:00,
2013-08-25 06:57:00,46.6,46.1,30.39,NE,45,0.0,-999.0,98,-99.99,,,0.00,Acu-Link.com,2013-08-25 10:57:00,
2013-08-25 07:13:00,46.4,45.9,30.38,NNE,22,0.0,-999.0,98,-99.99,,,0.00,Acu-Link.com,2013-08-25 11:13:00,
2013-08-25 07:28:00,47.3,46.8,30.38,ESE,112,0.0,-999.0,98,-99.99,,,0.00,Acu-Link.com,2013-08-25 11:28:00,
2013-08-25 07:43:00,48.7,48.2,30.38,East,90,0.0,-999.0,98,-99.99,,,0.00,Acu-Link.com,2013-08-25 11:43:00,
2013-08-25 07:58:00,50.0,49.5,30.37,East,90,0.0,-999.0,98,-99.99,,,0.00,Acu-Link.com,2013-08-25 11:58:00,
2013-08-25 08:13:00,51.8,51.3,30.38,NNE,22,1.7,-999.0,98,-99.99,,,0.00,Acu-Link.com,2013-08-25 12:13:00,
2013-08-25 08:29:00,54.0,53.4,30.38,NE,45,1.1,-999.0,98,-99.99,,,0.00,Acu-Link.com,2013-08-25 12:29:00,
2013-08-25 08:44:00,55.9,54.8,30.38,NNE,22,2.2,-999.0,96,-99.99,,,0.00,Acu-Link.com,2013-08-25 12:44:00,
2013-08-25 08:59:00,57.7,55.1,30.38,North,0,2.7,-999.0,91,-99.99,,,0.00,Acu-Link.com,2013-08-25 12:59:00,
2013-08-25 09:14:00,59.2,55.6,30.38,North,0,2.2,-999.0,88,-99.99,,,0.00,Acu-Link.com,2013-08-25 13:14:00,
2013-08-25 09:29:00,61.2,56.7,30.38,NNW,337,2.2,-999.0,85,-99.99,,,0.00,Acu-Link.com,2013-08-25 13:29:00,
2013-08-25 09:45:00,62.4,56.5,30.37,WNW,292,1.7,-999.0,81,-99.99,,,0.00,Acu-Link.com,2013-08-25 13:45:00,
2013-08-25 10:00:00,63.9,56.5,30.37,NNW,337,2.2,-999.0,77,-99.99,,,0.00,Acu-Link.com,2013-08-25 14:00:00,
2013-08-25 10:15:00,65.3,57.9,30.36,NNE,22,0.0,-999.0,77,-99.99,,,0.00,Acu-Link.com,2013-08-25 14:15:00,
2013-08-25 10:30:00,66.4,58.2,30.36,WSW,247,1.7,-999.0,75,-99.99,,,0.00,Acu-Link.com,2013-08-25 14:30:00,
2013-08-25 10:45:00,67.8,58.4,30.35,SE,135,0.0,-999.0,72,-99.99,,,0.00,Acu-Link.com,2013-08-25 14:45:00,
2013-08-25 11:01:00,68.9,59.1,30.34,SE,135,2.2,-999.0,71,-99.99,,,0.00,Acu-Link.com,2013-08-25 15:01:00,
2013-08-25 11:16:00,70.0,58.1,30.34,SW,225,2.7,-999.0,66,-99.99,,,0.00,Acu-Link.com,2013-08-25 15:16:00,
2013-08-25 11:31:00,70.7,57.0,30.33,WNW,292,2.7,-999.0,62,-99.99,,,0.00,Acu-Link.com,2013-08-25 15:31:00,
2013-08-25 11:46:00,71.4,57.7,30.33,East,90,1.7,-999.0,62,-99.99,,,0.00,Acu-Link.com,2013-08-25 15:46:00,
2013-08-25 12:02:00,71.2,56.6,30.32,North,0,2.7,-999.0,60,-99.99,,,0.00,Acu-Link.com,2013-08-25 16:02:00,
2013-08-25 12:17:00,72.1,57.4,30.31,ESE,112,1.1,-999.0,60,-99.99,,,0.00,Acu-Link.com,2013-08-25 16:17:00,
2013-08-25 12:32:00,73.8,55.6,30.30,South,180,1.1,-999.0,53,-99.99,,,0.00,Acu-Link.com,2013-08-25 16:32:00,
2013-08-25 12:47:00,75.7,55.7,30.30,NNW,337,1.7,-999.0,50,-99.99,,,0.00,Acu-Link.com,2013-08-25 16:47:00,
2013-08-25 13:02:00,75.6,56.7,30.29,NNE,22,1.7,-999.0,52,-99.99,,,0.00,Acu-Link.com,2013-08-25 17:02:00,
2013-08-25 13:17:00,76.1,56.1,30.30,SE,135,1.7,-999.0,50,-99.99,,,0.00,Acu-Link.com,2013-08-25 17:17:00,
2013-08-25 13:33:00,76.3,55.7,30.30,East,90,1.7,-999.0,49,-99.99,,,0.00,Acu-Link.com,2013-08-25 17:33:00,
2013-08-25 13:48:00,76.1,56.6,30.29,South,180,4.2,-999.0,51,-99.99,,,0.00,Acu-Link.com,2013-08-25 17:48:00,
2013-08-25 14:03:00,77.2,58.2,30.29,ESE,112,3.7,-999.0,52,-99.99,,,0.00,Acu-Link.com,2013-08-25 18:03:00,
2013-08-25 14:18:00,78.4,59.3,30.28,West,270,2.2,-999.0,52,-99.99,,,0.00,Acu-Link.com,2013-08-25 18:18:00,
2013-08-25 14:34:00,77.7,59.2,30.27,NNW,337,2.7,-999.0,53,-99.99,,,0.00,Acu-Link.com,2013-08-25 18:34:00,
2013-08-25 14:49:00,80.8,61.0,30.27,NE,45,1.7,-999.0,51,-99.99,,,0.00,Acu-Link.com,2013-08-25 18:49:00,
2013-08-25 15:04:00,77.0,58.5,30.25,NNE,22,2.2,-999.0,53,-99.99,,,0.00,Acu-Link.com,2013-08-25 19:04:00,
2013-08-25 15:19:00,76.8,58.4,30.25,SW,225,0.0,-999.0,53,-99.99,,,0.00,Acu-Link.com,2013-08-25 19:19:00,
2013-08-25 15:35:00,76.6,58.2,30.25,NNW,337,2.7,-999.0,53,-99.99,,,0.00,Acu-Link.com,2013-08-25 19:35:00,
2013-08-25 15:50:00,79.2,60.0,30.24,SW,225,2.2,-999.0,52,-99.99,,,0.00,Acu-Link.com,2013-08-25 19:50:00,
2013-08-25 16:05:00,78.6,61.1,30.24,WSW,247,1.7,-999.0,55,-99.99,,,0.00,Acu-Link.com,2013-08-25 20:05:00,
2013-08-25 16:21:00,78.6,58.9,30.23,SW,225,0.0,-999.0,51,-99.99,,,0.00,Acu-Link.com,2013-08-25 20:21:00,
2013-08-25 16:36:00,78.3,59.2,30.23,NNW,337,2.7,-999.0,52,-99.99,,,0.00,Acu-Link.com,2013-08-25 20:36:00,
2013-08-25 16:51:00,76.5,59.1,30.22,West,270,0.0,-999.0,55,-99.99,,,0.00,Acu-Link.com,2013-08-25 20:51:00,
2013-08-25 17:06:00,75.4,57.6,30.22,North,0,2.7,-999.0,54,-99.99,,,0.00,Acu-Link.com,2013-08-25 21:06:00,
2013-08-25 17:22:00,74.8,58.0,30.21,WNW,292,1.1,-999.0,56,-99.99,,,0.00,Acu-Link.com,2013-08-25 21:22:00,
2013-08-25 17:37:00,74.3,56.6,30.21,NNE,22,1.7,-999.0,54,-99.99,,,0.00,Acu-Link.com,2013-08-25 21:37:00,
2013-08-25 17:52:00,73.6,55.4,30.20,West,270,1.1,-999.0,53,-99.99,,,0.00,Acu-Link.com,2013-08-25 21:52:00,
2013-08-25 18:08:00,72.7,57.1,30.19,West,270,0.0,-999.0,58,-99.99,,,0.00,Acu-Link.com,2013-08-25 22:08:00,
2013-08-25 18:23:00,71.1,58.3,30.19,South,180,0.0,-999.0,64,-99.99,,,0.00,Acu-Link.com,2013-08-25 22:23:00,
2013-08-25 18:38:00,69.4,58.4,30.19,SSW,202,0.0,-999.0,68,-99.99,,,0.00,Acu-Link.com,2013-08-25 22:38:00,
2013-08-25 18:54:00,68.2,58.0,30.19,SSW,202,1.7,-999.0,70,-99.99,,,0.00,Acu-Link.com,2013-08-25 22:54:00,
2013-08-25 19:09:00,67.1,57.4,30.19,South,180,0.0,-999.0,71,-99.99,,,0.00,Acu-Link.com,2013-08-25 23:09:00,
2013-08-25 19:24:00,66.4,57.5,30.18,SSW,202,0.0,-999.0,73,-99.99,,,0.00,Acu-Link.com,2013-08-25 23:24:00,
2013-08-25 19:39:00,65.7,57.9,30.18,SSW,202,0.0,-999.0,76,-99.99,,,0.00,Acu-Link.com,2013-08-25 23:39:00,
2013-08-25 19:54:00,65.1,57.7,30.18,South,180,0.0,-999.0,77,-99.99,,,0.00,Acu-Link.com,2013-08-25 23:54:00,
2013-08-25 20:09:00,64.2,57.5,30.17,SSE,157,0.0,-999.0,79,-99.99,,,0.00,Acu-Link.com,2013-08-26 00:09:00,
2013-08-25 20:25:00,63.9,57.6,30.17,SE,135,0.0,-999.0,80,-99.99,,,0.00,Acu-Link.com,2013-08-26 00:25:00,
2013-08-25 20:40:00,63.3,57.7,30.17,SE,135,0.0,-999.0,82,-99.99,,,0.00,Acu-Link.com,2013-08-26 00:40:00,
2013-08-25 20:55:00,63.0,57.4,30.17,SSW,202,0.0,-999.0,82,-99.99,,,0.00,Acu-Link.com,2013-08-26 00:55:00,
2013-08-25 21:10:00,62.8,57.6,30.17,SE,135,0.0,-999.0,83,-99.99,,,0.00,Acu-Link.com,2013-08-26 01:10:00,
2013-08-25 21:26:00,62.2,57.3,30.18,SSE,157,0.0,-999.0,84,-99.99,,,0.00,Acu-Link.com,2013-08-26 01:26:00,
2013-08-25 21:41:00,61.7,57.5,30.17,NE,45,0.0,-999.0,86,-99.99,,,0.00,Acu-Link.com,2013-08-26 01:41:00,
2013-08-25 21:56:00,61.3,57.4,30.17,NNE,22,0.0,-999.0,87,-99.99,,,0.00,Acu-Link.com,2013-08-26 01:56:00,
2013-08-25 22:12:00,61.0,57.1,30.17,ESE,112,0.0,-999.0,87,-99.99,,,0.00,Acu-Link.com,2013-08-26 02:12:00,
2013-08-25 22:27:00,60.8,57.5,30.17,ESE,112,0.0,-999.0,89,-99.99,,,0.00,Acu-Link.com,2013-08-26 02:27:00,
2013-08-25 22:42:00,60.8,57.8,30.17,NNE,22,0.0,-999.0,90,-99.99,,,0.00,Acu-Link.com,2013-08-26 02:42:00,
2013-08-25 22:57:00,60.6,58.0,30.17,NNE,22,0.0,-999.0,91,-99.99,,,0.00,Acu-Link.com,2013-08-26 02:57:00,
2013-08-25 23:12:00,60.6,58.0,30.16,NNE,22,0.0,-999.0,91,-99.99,,,0.00,Acu-Link.com,2013-08-26 03:12:00,
2013-08-25 23:28:00,60.6,58.0,30.16,NNE,22,0.0,-999.0,91,-99.99,,,0.00,Acu-Link.com,2013-08-26 03:28:00,
2013-08-25 23:43:00,60.6,58.0,30.16,WSW,247,0.0,-999.0,91,-99.99,,,0.00,Acu-Link.com,2013-08-26 03:43:00,
2013-08-25 23:58:00,60.8,58.5,30.15,WSW,247,0.0,-999.0,92,-99.99,,,0.00,Acu-Link.com,2013-08-26 03:58:00,